| time (UTC) | temp F | wind direction | speed MPH | gust MPH | rain 1hr in | rain 24hr in | rain mn in | humidity % | barometer mb |
| 20260504140845 | 68 | 248 | 6.0 | 0.0 | 0.00 | 0.00 | 0.00 | 84 | 1013.1 |
| 20260504140335 | 67 | 232 | 6.0 | 0.0 | 0.00 | 0.00 | 0.00 | 86 | 1013.1 |
| 20260504130352 | 68 | 281 | 6.0 | 0.0 | 0.00 | 0.00 | 0.00 | 83 | 1013.5 |
| 20260504110343 | 68 | 252 | 7.0 | 0.0 | 0.00 | 0.00 | 0.00 | 81 | 1013.7 |
| 20260504100330 | 70 | 222 | 2.0 | 0.0 | 0.00 | 0.00 | 0.00 | 77 | 1013.8 |
| 20260504081905 | 66 | 134 | 1.0 | 0.0 | 0.00 | 0.00 | 0.00 | 88 | 1013.8 |
| 20260504081335 | 66 | 110 | 1.0 | 0.0 | 0.00 | 0.00 | 0.00 | 89 | 1013.8 |
| 20260504080826 | 66 | 75 | 1.0 | 0.0 | 0.00 | 0.00 | 0.00 | 90 | 1013.8 |
| 20260504080332 | 66 | 91 | 1.0 | 0.0 | 0.00 | 0.00 | 0.00 | 90 | 1013.9 |
| 20260504070334 | 64 | 84 | 0.0 | 0.0 | 0.00 | 0.00 | 0.00 | 93 | 1013.6 |
| 20260504045850 | 61 | 360 | 0.0 | 0.0 | 0.00 | 0.00 | 0.00 | 93 | 1013.6 |
| 20260504045342 | 62 | 360 | 0.0 | 0.0 | 0.00 | 0.00 | 0.00 | 93 | 1013.6 |
| 20260504044834 | 62 | 360 | 0.0 | 0.0 | 0.00 | 0.00 | 0.00 | 93 | 1013.6 |
| 20260504044326 | 62 | 360 | 0.0 | 0.0 | 0.00 | 0.00 | 0.00 | 93 | 1013.6 |
| 20260504043836 | 62 | 360 | 1.0 | 0.0 | 0.00 | 0.00 | 0.00 | 93 | 1013.7 |
| 20260504043342 | 62 | 360 | 1.0 | 0.0 | 0.00 | 0.00 | 0.00 | 93 | 1013.7 |
| 20260504042833 | 62 | 360 | 2.0 | 0.0 | 0.00 | 0.00 | 0.00 | 93 | 1013.8 |
| 20260504042342 | 62 | 360 | 1.0 | 0.0 | 0.00 | 0.00 | 0.00 | 93 | 1013.7 |
| 20260504041832 | 62 | 360 | 1.0 | 0.0 | 0.00 | 0.00 | 0.00 | 93 | 1013.7 |
| 20260504041343 | 62 | 360 | 0.0 | 0.0 | 0.00 | 0.00 | 0.00 | 93 | 1013.6 |
| 20260504040829 | 62 | 360 | 0.0 | 0.0 | 0.00 | 0.00 | 0.00 | 93 | 1013.5 |
| 20260504040340 | 62 | 360 | 0.0 | 0.0 | 0.00 | 0.00 | 0.00 | 93 | 1013.6 |
| 20260504035904 | 62 | 360 | 0.0 | 0.0 | 0.00 | 0.00 | 0.00 | 93 | 1013.6 |
| 20260504035332 | 62 | 360 | 1.0 | 0.0 | 0.00 | 0.00 | 0.00 | 93 | 1013.7 |
| 20260504034838 | 62 | 360 | 1.0 | 0.0 | 0.00 | 0.00 | 0.00 | 93 | 1013.9 |
| 20260504034328 | 62 | 360 | 0.0 | 0.0 | 0.00 | 0.00 | 0.00 | 93 | 1013.9 |
| 20260504033838 | 62 | 360 | 0.0 | 0.0 | 0.00 | 0.00 | 0.00 | 93 | 1014.0 |
| 20260504033330 | 61 | 360 | 0.0 | 0.0 | 0.00 | 0.00 | 0.00 | 93 | 1014.1 |
| 20260504032841 | 61 | 360 | 0.0 | 0.0 | 0.00 | 0.00 | 0.00 | 93 | 1014.1 |
| 20260504032332 | 61 | 360 | 1.0 | 0.0 | 0.00 | 0.00 | 0.00 | 93 | 1014.1 |
| 20260504031838 | 61 | 360 | 1.0 | 0.0 | 0.00 | 0.00 | 0.00 | 93 | 1014.2 |
| 20260504031329 | 62 | 360 | 1.0 | 0.0 | 0.00 | 0.00 | 0.00 | 93 | 1014.3 |
| 20260504030839 | 62 | 360 | 0.0 | 0.0 | 0.00 | 0.00 | 0.00 | 93 | 1014.3 |
| 20260504030337 | 61 | 360 | 0.0 | 0.0 | 0.00 | 0.00 | 0.00 | 93 | 1014.2 |
| 20260504025840 | 62 | 360 | 1.0 | 0.0 | 0.00 | 0.00 | 0.00 | 93 | 1014.1 |
| 20260504025328 | 62 | 360 | 1.0 | 0.0 | 0.00 | 0.00 | 0.00 | 93 | 1014.1 |
| 20260504024838 | 62 | 360 | 1.0 | 0.0 | 0.00 | 0.00 | 0.00 | 93 | 1014.1 |
| 20260504024328 | 62 | 360 | 1.0 | 0.0 | 0.00 | 0.00 | 0.00 | 93 | 1014.1 |
| 20260504023838 | 62 | 360 | 1.0 | 0.0 | 0.00 | 0.00 | 0.00 | 93 | 1014.1 |
| 20260504023329 | 62 | 360 | 1.0 | 0.0 | 0.00 | 0.00 | 0.00 | 93 | 1014.1 |
| 20260504022835 | 62 | 360 | 1.0 | 0.0 | 0.00 | 0.00 | 0.00 | 93 | 1014.2 |
| 20260504022346 | 62 | 360 | 1.0 | 0.0 | 0.00 | 0.00 | 0.00 | 93 | 1014.2 |
| 20260504021837 | 62 | 360 | 1.0 | 0.0 | 0.00 | 0.00 | 0.00 | 93 | 1014.3 |
| 20260504021328 | 62 | 360 | 0.0 | 0.0 | 0.00 | 0.00 | 0.00 | 93 | 1014.2 |
| 20260504020840 | 62 | 360 | 0.0 | 0.0 | 0.00 | 0.00 | 0.00 | 92 | 1014.2 |
| 20260504020346 | 62 | 360 | 0.0 | 0.0 | 0.00 | 0.00 | 0.00 | 92 | 1014.3 |
| 20260504015829 | 62 | 360 | 0.0 | 0.0 | 0.00 | 0.00 | 0.00 | 92 | 1014.2 |
| 20260504015341 | 62 | 360 | 0.0 | 0.0 | 0.00 | 0.00 | 0.00 | 92 | 1014.3 |
| 20260504014851 | 62 | 360 | 0.0 | 0.0 | 0.00 | 0.00 | 0.00 | 92 | 1014.3 |
| 20260504014341 | 62 | 360 | 0.0 | 0.0 | 0.00 | 0.00 | 0.00 | 92 | 1014.4 |
| 20260504013828 | 62 | 360 | 0.0 | 0.0 | 0.00 | 0.00 | 0.00 | 92 | 1014.4 |
| 20260504013356 | 62 | 360 | 0.0 | 0.0 | 0.00 | 0.00 | 0.00 | 92 | 1014.5 |
| 20260504012846 | 62 | 360 | 0.0 | 0.0 | 0.00 | 0.00 | 0.00 | 92 | 1014.5 |
| 20260504012337 | 62 | 360 | 0.0 | 0.0 | 0.00 | 0.00 | 0.00 | 92 | 1014.4 |
| 20260504011904 | 62 | 360 | 0.0 | 0.0 | 0.00 | 0.00 | 0.00 | 92 | 1014.6 |
| 20260504011334 | 62 | 360 | 1.0 | 0.0 | 0.00 | 0.00 | 0.00 | 91 | 1014.6 |
| 20260504010845 | 62 | 360 | 0.0 | 0.0 | 0.00 | 0.00 | 0.00 | 91 | 1014.6 |
| 20260504010355 | 62 | 360 | 0.0 | 0.0 | 0.00 | 0.00 | 0.00 | 91 | 1014.7 |
| 20260504005837 | 62 | 360 | 0.0 | 0.0 | 0.00 | 0.00 | 0.00 | 91 | 1014.7 |
| 20260504005344 | 62 | 360 | 1.0 | 0.0 | 0.00 | 0.00 | 0.00 | 91 | 1014.9 |
| 20260504004835 | 62 | 342 | 1.0 | 0.0 | 0.00 | 0.00 | 0.00 | 91 | 1015.1 |
| 20260504004346 | 62 | 360 | 1.0 | 0.0 | 0.00 | 0.00 | 0.00 | 91 | 1015.1 |
| 20260504003836 | 61 | 360 | 2.0 | 0.0 | 0.00 | 0.00 | 0.00 | 91 | 1015.0 |
| 20260504003327 | 61 | 360 | 2.0 | 0.0 | 0.00 | 0.00 | 0.00 | 91 | 1015.1 |
| 20260504002834 | 61 | 360 | 2.0 | 0.0 | 0.00 | 0.00 | 0.00 | 91 | 1015.2 |
| 20260504002405 | 61 | 360 | 1.0 | 0.0 | 0.00 | 0.00 | 0.00 | 91 | 1015.2 |
| 20260504001835 | 62 | 212 | 1.0 | 0.0 | 0.00 | 0.00 | 0.00 | 91 | 1015.1 |
| 20260504001345 | 62 | 360 | 0.0 | 0.0 | 0.00 | 0.00 | 0.00 | 91 | 1015.1 |
| 20260504000836 | 62 | 360 | 0.0 | 0.0 | 0.00 | 0.00 | 0.00 | 91 | 1015.1 |
| 20260504000402 | 62 | 360 | 0.0 | 0.0 | 0.00 | 0.00 | 0.00 | 91 | 1015.0 |
| 20260503235845 | 62 | 360 | 1.0 | 0.0 | 0.00 | 0.00 | 0.00 | 91 | 1014.9 |
| 20260503235337 | 62 | 360 | 2.0 | 0.0 | 0.00 | 0.00 | 0.00 | 90 | 1015.0 |
| 20260503234827 | 62 | 360 | 1.0 | 0.0 | 0.00 | 0.00 | 0.00 | 90 | 1015.0 |
| 20260503234333 | 62 | 234 | 1.0 | 0.0 | 0.00 | 0.00 | 0.00 | 90 | 1015.1 |
| 20260503233844 | 62 | 360 | 1.0 | 0.0 | 0.00 | 0.00 | 0.00 | 90 | 1015.1 |
| 20260503233335 | 62 | 266 | 0.0 | 0.0 | 0.00 | 0.00 | 0.00 | 90 | 1015.0 |
| 20260503232845 | 62 | 266 | 0.0 | 0.0 | 0.00 | 0.00 | 0.00 | 90 | 1015.0 |
| 20260503232335 | 62 | 360 | 0.0 | 0.0 | 0.00 | 0.00 | 0.00 | 90 | 1015.0 |
| 20260503231840 | 62 | 266 | 0.0 | 0.0 | 0.00 | 0.00 | 0.00 | 90 | 1015.0 |
| 20260503231352 | 62 | 266 | 0.0 | 0.0 | 0.00 | 0.00 | 0.00 | 90 | 1015.0 |
| 20260503230828 | 62 | 266 | 0.0 | 0.0 | 0.00 | 0.00 | 0.00 | 89 | 1015.0 |
| 20260503230339 | 62 | 360 | 0.0 | 0.0 | 0.00 | 0.00 | 0.00 | 89 | 1014.9 |
| 20260503225851 | 62 | 360 | 0.0 | 0.0 | 0.00 | 0.00 | 0.00 | 89 | 1015.0 |
| 20260503225337 | 62 | 360 | 0.0 | 0.0 | 0.00 | 0.00 | 0.00 | 89 | 1014.9 |
| 20260503224827 | 62 | 360 | 0.0 | 0.0 | 0.00 | 0.00 | 0.00 | 89 | 1015.0 |
| 20260503224337 | 62 | 360 | 0.0 | 0.0 | 0.00 | 0.00 | 0.00 | 89 | 1015.0 |
| 20260503223828 | 62 | 360 | 0.0 | 0.0 | 0.00 | 0.00 | 0.00 | 89 | 1014.9 |
| 20260503223339 | 62 | 360 | 0.0 | 0.0 | 0.00 | 0.00 | 0.00 | 88 | 1014.9 |
| 20260503222826 | 63 | 360 | 0.0 | 0.0 | 0.00 | 0.00 | 0.00 | 88 | 1014.9 |
| 20260503222336 | 63 | 360 | 0.0 | 0.0 | 0.00 | 0.00 | 0.00 | 88 | 1014.9 |
| 20260503221826 | 63 | 360 | 0.0 | 0.0 | 0.00 | 0.00 | 0.00 | 88 | 1014.8 |
| 20260503221337 | 63 | 360 | 0.0 | 0.0 | 0.00 | 0.00 | 0.00 | 88 | 1014.9 |
| 20260503220827 | 63 | 360 | 0.0 | 0.0 | 0.00 | 0.00 | 0.00 | 88 | 1014.7 |
| 20260503220333 | 63 | 360 | 0.0 | 0.0 | 0.00 | 0.00 | 0.00 | 87 | 1014.6 |
| 20260503215836 | 63 | 360 | 0.0 | 0.0 | 0.00 | 0.00 | 0.00 | 87 | 1014.6 |
| 20260503215327 | 63 | 360 | 0.0 | 0.0 | 0.00 | 0.00 | 0.46 | 87 | 1014.6 |
| 20260503214837 | 63 | 360 | 0.0 | 0.0 | 0.00 | 0.00 | 0.46 | 87 | 1014.6 |
| 20260503214327 | 63 | 360 | 0.0 | 0.0 | 0.00 | 0.00 | 0.46 | 87 | 1014.6 |
| 20260503213833 | 63 | 360 | 0.0 | 0.0 | 0.00 | 0.00 | 0.46 | 87 | 1014.8 |
| 20260503213344 | 63 | 360 | 0.0 | 0.0 | 0.00 | 0.00 | 0.46 | 86 | 1014.7 |
| 20260503212834 | 63 | 91 | 0.0 | 0.0 | 0.00 | 0.00 | 0.46 | 86 | 1014.8 |
| 20260503212344 | 63 | 360 | 0.0 | 0.0 | 0.00 | 0.00 | 0.46 | 86 | 1014.8 |
| 20260503211853 | 63 | 360 | 0.0 | 0.0 | 0.00 | 0.00 | 0.46 | 86 | 1014.8 |
| 20260503211339 | 63 | 360 | 0.0 | 0.0 | 0.00 | 0.00 | 0.46 | 86 | 1014.7 |
| 20260503210830 | 64 | 360 | 0.0 | 0.0 | 0.00 | 0.00 | 0.46 | 86 | 1014.6 |
| 20260503210340 | 64 | 360 | 0.0 | 0.0 | 0.00 | 0.00 | 0.46 | 85 | 1014.5 |
| 20260503205843 | 64 | 360 | 0.0 | 0.0 | 0.00 | 0.00 | 0.46 | 85 | 1014.6 |
| 20260503205334 | 64 | 87 | 0.0 | 0.0 | 0.00 | 0.00 | 0.46 | 85 | 1014.6 |
| 20260503204901 | 64 | 360 | 0.0 | 0.0 | 0.00 | 0.00 | 0.46 | 85 | 1014.6 |
| 20260503204331 | 64 | 360 | 0.0 | 0.0 | 0.00 | 0.00 | 0.46 | 85 | 1014.6 |
| 20260503203842 | 64 | 360 | 0.0 | 0.0 | 0.00 | 0.00 | 0.46 | 85 | 1014.4 |
| 20260503203333 | 64 | 56 | 0.0 | 0.0 | 0.00 | 0.00 | 0.46 | 85 | 1014.5 |
| 20260503202844 | 64 | 96 | 1.0 | 0.0 | 0.00 | 0.00 | 0.46 | 84 | 1014.4 |
| 20260503202331 | 64 | 360 | 0.0 | 0.0 | 0.00 | 0.00 | 0.46 | 84 | 1014.5 |
| 20260503201841 | 64 | 360 | 0.0 | 0.0 | 0.00 | 0.00 | 0.46 | 83 | 1014.5 |
| 20260503201331 | 64 | 116 | 0.0 | 0.0 | 0.00 | 0.00 | 0.46 | 83 | 1014.5 |
| 20260503200841 | 64 | 103 | 0.0 | 0.0 | 0.00 | 0.00 | 0.46 | 83 | 1014.6 |
| 20260503200332 | 64 | 91 | 0.0 | 0.0 | 0.00 | 0.00 | 0.46 | 83 | 1014.6 |
| 20260503195831 | 64 | 360 | 1.0 | 0.0 | 0.00 | 0.00 | 0.46 | 82 | 1014.5 |
| 20260503195341 | 64 | 86 | 2.0 | 0.0 | 0.00 | 0.00 | 0.46 | 82 | 1014.4 |
| 20260503194831 | 64 | 360 | 3.0 | 0.0 | 0.00 | 0.00 | 0.46 | 82 | 1014.2 |
| 20260503194342 | 64 | 360 | 3.0 | 0.0 | 0.00 | 0.00 | 0.46 | 82 | 1014.1 |
| 20260503193832 | 65 | 360 | 3.0 | 0.0 | 0.00 | 0.00 | 0.46 | 81 | 1014.2 |
| 20260503193339 | 65 | 111 | 1.0 | 0.0 | 0.00 | 0.00 | 0.46 | 81 | 1014.3 |
| 20260503192829 | 65 | 360 | 1.0 | 0.0 | 0.00 | 0.00 | 0.46 | 81 | 1014.5 |
| 20260503192340 | 65 | 73 | 1.0 | 0.0 | 0.00 | 0.00 | 0.46 | 81 | 1014.3 |
| 20260503191830 | 65 | 360 | 1.0 | 0.0 | 0.00 | 0.00 | 0.46 | 80 | 1014.3 |
| 20260503190839 | 65 | 360 | 2.0 | 0.0 | 0.00 | 0.00 | 0.46 | 80 | 1014.3 |
| 20260503190350 | 65 | 360 | 1.0 | 0.0 | 0.00 | 0.00 | 0.46 | 79 | 1014.4 |
| 20260503185832 | 65 | 360 | 0.0 | 0.0 | 0.00 | 0.00 | 0.46 | 79 | 1014.5 |
| 20260503185343 | 66 | 360 | 0.0 | 0.0 | 0.00 | 0.00 | 0.46 | 78 | 1014.4 |
| 20260503184833 | 66 | 360 | 0.0 | 0.0 | 0.00 | 0.00 | 0.46 | 78 | 1014.5 |
| 20260503184341 | 66 | 360 | 0.0 | 0.0 | 0.00 | 0.00 | 0.46 | 78 | 1014.4 |
| 20260503183831 | 66 | 360 | 0.0 | 0.0 | 0.00 | 0.00 | 0.46 | 77 | 1014.4 |
| 20260503183341 | 66 | 360 | 0.0 | 0.0 | 0.00 | 0.00 | 0.46 | 77 | 1014.4 |
| 20260503182831 | 66 | 360 | 0.0 | 0.0 | 0.00 | 0.00 | 0.46 | 77 | 1014.4 |
| 20260503182341 | 66 | 86 | 0.0 | 0.0 | 0.00 | 0.00 | 0.46 | 76 | 1014.4 |
| 20260503181829 | 66 | 77 | 0.0 | 0.0 | 0.00 | 0.00 | 0.46 | 77 | 1014.4 |
| 20260503181419 | 66 | 60 | 0.0 | 0.0 | 0.00 | 0.00 | 0.46 | 77 | 1014.5 |
| 20260503180844 | 66 | 46 | 1.0 | 0.0 | 0.00 | 0.00 | 0.46 | 76 | 1014.4 |
| 20260503180334 | 66 | 54 | 1.0 | 0.0 | 0.00 | 0.00 | 0.46 | 76 | 1014.4 |
| 20260503175833 | 66 | 64 | 0.0 | 0.0 | 0.00 | 0.00 | 0.46 | 77 | 1014.4 |
| 20260503175343 | 66 | 360 | 0.0 | 0.0 | 0.00 | 0.00 | 0.46 | 77 | 1014.4 |
| 20260503174832 | 67 | 360 | 2.0 | 0.0 | 0.00 | 0.00 | 0.46 | 77 | 1014.4 |
| 20260503174344 | 67 | 360 | 2.0 | 0.0 | 0.00 | 0.00 | 0.46 | 76 | 1014.3 |
| 20260503173835 | 67 | 103 | 1.0 | 0.0 | 0.00 | 0.00 | 0.46 | 76 | 1014.3 |
| 20260503173340 | 67 | 360 | 1.0 | 0.0 | 0.00 | 0.00 | 0.46 | 76 | 1014.2 |
| 20260503172831 | 67 | 86 | 1.0 | 0.0 | 0.00 | 0.00 | 0.46 | 76 | 1014.3 |
| 20260503172403 | 67 | 28 | 3.0 | 0.0 | 0.00 | 0.00 | 0.46 | 76 | 1014.3 |
| 20260503171853 | 67 | 105 | 3.0 | 0.0 | 0.00 | 0.00 | 0.46 | 76 | 1014.1 |
| 20260503171342 | 67 | 79 | 3.0 | 0.0 | 0.00 | 0.00 | 0.46 | 76 | 1014.0 |
| 20260503170829 | 67 | 65 | 2.0 | 0.0 | 0.00 | 0.00 | 0.46 | 77 | 1014.1 |
| 20260503170341 | 67 | 108 | 3.0 | 0.0 | 0.00 | 0.00 | 0.46 | 77 | 1014.2 |
| 20260503150842 | 69 | 125 | 4.0 | 0.0 | 0.00 | 0.00 | 0.46 | 80 | 1014.5 |
| 20260503150332 | 69 | 91 | 5.0 | 0.0 | 0.00 | 0.00 | 0.46 | 79 | 1014.5 |